Jefferson, NH

2:10 AM EDT on August 20, 2014 (GMT -0400)
Spruce Road | Change Station
CLOSE
Current Station
Personal Weather Station
Location: Bethlehem, NH
Elevation: 1493 ft
Nearby Weather Stations

Elev 1493 ft 44.28 °N, 71.65 °W | Updated 4 minutes ago

Partly Cloudy
Partly Cloudy
51.8 °F
Feels Like 51.8 °F
N
0.0
Wind Variable Wind from West

Today
High -- | Low -- °F
--% Chance of Precip.
Yesterday
High -- | Low -- °F
Precip. -- in
5:55 AM 7:42 PM
Waning Crescent, 24% visible
Pressure 30.00 in
Visibility 10.0 miles
Clouds Few 100 ft
Dew Point 52 °F
Humidity 99%
Rainfall 0.00 in
Snow Depth Not available.
UV 0 out of 12
Pollen 8.30 out of 12
Air Quality Not available.
Flu Activity Not available.
METAR KHIE 200552Z AUTO 00000KT 10SM FEW001 09/07 A3000 RMK AO2 SLP159 T00890072 10167 20089 51008

More Conditions Fewer Conditions

Pressure 30.00 in
Visibility 10.0 miles
Clouds Few 100 ft
Dew Point 52 °F
Humidity 99%
Rainfall 0.00 in
Snow Depth Not available.
UV 0 out of 12
Pollen 8.30 out of 12
Air Quality Not available.
Flu Activity Not available.
METAR KHIE 200552Z AUTO 00000KT 10SM FEW001 09/07 A3000 RMK AO2 SLP159 T00890072 10167 20089 51008

More Conditions Fewer Conditions

10-Day Weather Forecast

Almanac

Astronomy

Aug. 20, 2014 Rise Set
Actual Time 5:55 AM EDT 7:42 PM EDT
Civil Twilight 5:24 AM EDT 8:13 PM EDT
Nautical Twilight 4:46 AM EDT 8:51 PM EDT
Astronomical Twilight 4:05 AM EDT 9:31 PM EDT
Moon 1:28 AM EDT 4:29 PM EDT
Length of Visible Light 14h 49m
Length of Day
13h 47m
Tomorrow will be 2m 48s shorter.
Waning Crescent, 24% of the Moon is Illuminated
Today
Waning Crescent
Aug 25
New
Sep 2
First Quarter
Sep 8
Full
Sep 15
Last Quarter

Today's Extremes

State Highs State Lows

Community

WunderPhotos

Upload Photos

1,745,592 photos uploaded!

Nearby

Air Quality

  Air Quality AQ Index Pollutant
Wednesday Good
PM2.5
Wednesday Good
OZONE

Snow Depth

Station Depth Elevation
No new snow has been reported.

Earthquake Activity

City Distance Mag. Time & Date
No recent earthquake activity has been reported nearby.
Minimum magnitude displayed is 2.5.

Coastal Water Temperatures

Place Temperature
No Stations Reporting

Nearby Weather Stations